Time;durP1;ratioP1;P1;durP2;ratioP2;P2;SDS_P1;SDS_P2;PMS_P1;PMS_P2;Temp;Humidity;BMP_temperature;BMP_pressure;BME280_temperature;BME280_humidity;BME280_pressure;Samples;Min_cycle;Max_cycle;Signal;HPM_P1;HPM_P2
2023/10/02 00:01:10;;;;;;;15.20;7.00;;;;;;;15.47;57.75;101955.78;4976011;28;20045;-70
2023/10/02 00:03:41;;;;;;;20.17;7.05;;;;;;;15.51;57.28;101960.00;4974973;28;20073;-70
2023/10/02 00:06:09;;;;;;;18.13;7.07;;;;;;;15.56;57.33;101955.38;4985819;28;20054;-69
2023/10/02 00:08:42;;;;;;;16.02;6.95;;;;;;;15.51;57.26;101947.69;4967047;28;20069;-70
2023/10/02 00:11:41;;;;;;;18.48;7.25;;;;;;;15.51;57.55;101942.41;4990804;28;20677;-72
2023/10/02 00:14:25;;;;;;;13.45;5.65;;;;;;;15.54;57.42;101947.53;4968195;28;20049;-70
2023/10/02 00:16:59;;;;;;;14.73;5.80;;;;;;;15.55;57.42;101943.09;4980273;28;20042;-70
2023/10/02 00:19:37;;;;;;;11.32;5.80;;;;;;;15.60;57.30;101951.69;4951276;28;20661;-70
2023/10/02 00:22:09;;;;;;;20.58;7.60;;;;;;;15.61;57.28;101944.63;4960435;28;20089;-70
2023/10/02 00:24:40;;;;;;;15.38;7.10;;;;;;;15.59;57.12;101942.06;4972710;28;20046;-69
2023/10/02 00:27:07;;;;;;;22.08;7.82;;;;;;;15.58;57.10;101943.00;4967215;28;21021;-72
2023/10/02 00:29:34;;;;;;;17.15;5.95;;;;;;;15.62;57.05;101946.31;4976931;28;20027;-71
2023/10/02 00:32:00;;;;;;;19.05;7.20;;;;;;;15.61;57.28;101947.28;4962232;28;20223;-72
2023/10/02 00:34:32;;;;;;;19.10;7.20;;;;;;;15.61;57.42;101947.28;4959561;28;20068;-67
2023/10/02 00:37:12;;;;;;;17.52;7.60;;;;;;;15.59;57.44;101958.75;4957081;28;20061;-68
2023/10/02 00:39:38;;;;;;;19.67;6.75;;;;;;;15.63;57.27;101940.16;4957620;28;20077;-69
2023/10/02 00:42:15;;;;;;;15.45;6.18;;;;;;;15.66;57.26;101937.38;4959806;28;20109;-71
2023/10/02 00:45:01;;;;;;;14.88;6.50;;;;;;;15.61;57.42;101942.00;4955647;28;20057;-70
2023/10/02 00:47:41;;;;;;;20.58;6.88;;;;;;;15.63;57.49;101948.06;4947070;28;20043;-67
2023/10/02 00:50:16;;;;;;;16.20;6.20;;;;;;;15.59;57.52;101950.84;4959999;28;20055;-68
2023/10/02 00:52:45;;;;;;;14.70;6.57;;;;;;;15.62;57.36;101943.69;4956001;28;20034;-71
2023/10/02 00:55:17;;;;;;;16.95;6.80;;;;;;;15.38;58.00;101941.22;4965492;28;20027;-72
2023/10/02 00:57:45;;;;;;;18.60;7.68;;;;;;;15.53;57.52;101943.19;4956834;28;20054;-73
2023/10/02 01:00:19;;;;;;;15.55;6.32;;;;;;;15.59;57.20;101939.41;4967964;28;20089;-72
2023/10/02 01:02:46;;;;;;;13.32;6.75;;;;;;;15.60;57.44;101935.88;4948677;28;20049;-71
2023/10/02 01:05:21;;;;;;;19.60;7.47;;;;;;;15.59;57.45;101945.56;4959407;28;20555;-72
2023/10/02 01:07:48;;;;;;;19.02;7.50;;;;;;;15.32;58.13;101941.50;4961403;28;20540;-72
2023/10/02 01:10:20;;;;;;;16.33;6.78;;;;;;;15.49;57.77;101944.25;4960171;28;20069;-72
2023/10/02 01:12:53;;;;;;;21.50;7.32;;;;;;;15.58;57.51;101940.34;4970219;28;20489;-72
2023/10/02 01:15:20;;;;;;;16.42;7.25;;;;;;;15.54;57.62;101937.00;4970053;28;20046;-72
2023/10/02 01:17:48;;;;;;;17.92;6.47;;;;;;;15.37;57.83;101935.13;4965706;28;20129;-72
2023/10/02 01:23:17;;;;;;;15.77;6.85;;;;;;;15.44;57.48;101925.16;4958472;28;20038;-71
2023/10/02 01:25:47;;;;;;;17.90;7.65;;;;;;;15.56;57.13;101921.97;4964734;28;20034;-71
2023/10/02 01:28:15;;;;;;;17.67;8.02;;;;;;;15.56;57.41;101914.06;4977575;28;20042;-71
2023/10/02 01:30:44;;;;;;;15.65;7.38;;;;;;;15.58;57.08;101912.22;4957545;28;20114;-72
2023/10/02 01:33:26;;;;;;;18.15;6.22;;;;;;;15.56;57.28;101911.44;4980540;28;20137;-70
2023/10/02 01:35:56;;;;;;;15.95;6.07;;;;;;;15.55;57.31;101917.63;4980021;28;20420;-71
2023/10/02 01:38:29;;;;;;;16.17;6.93;;;;;;;15.50;57.08;101909.06;4986411;28;20049;-70
2023/10/02 01:43:32;;;;;;;12.30;5.50;;;;;;;15.46;57.16;101909.28;4980468;28;20050;-70
2023/10/02 01:46:00;;;;;;;16.88;7.18;;;;;;;15.45;57.28;101908.41;4982509;28;20037;-70
2023/10/02 01:48:48;;;;;;;18.80;6.18;;;;;;;15.46;57.35;101904.88;4976575;28;20042;-71
2023/10/02 01:51:20;;;;;;;16.23;6.57;;;;;;;15.42;57.88;101903.31;4977246;28;20041;-69
2023/10/02 01:54:15;;;;;;;14.75;7.43;;;;;;;15.45;57.49;101905.78;4973939;28;20141;-69
2023/10/02 01:56:45;;;;;;;12.93;6.63;;;;;;;15.45;57.26;101899.66;4977018;28;20108;-70
2023/10/02 01:59:14;;;;;;;13.07;6.57;;;;;;;15.39;57.30;101898.16;4978569;28;20125;-72
2023/10/02 02:01:54;;;;;;;14.00;7.03;;;;;;;15.38;57.41;101902.56;4967346;28;20062;-69
2023/10/02 02:04:28;;;;;;;12.00;7.63;;;;;;;15.26;57.94;101899.59;4976884;28;20576;-70
2023/10/02 02:06:56;;;;;;;15.82;6.90;;;;;;;15.29;57.97;101907.41;4958371;28;21481;-71
2023/10/02 02:09:37;;;;;;;16.25;7.30;;;;;;;15.33;57.50;101906.34;4965315;28;20181;-71
2023/10/02 02:12:22;;;;;;;19.83;7.40;;;;;;;15.29;57.98;101904.75;4993937;28;20061;-71
2023/10/02 02:14:50;;;;;;;19.00;7.95;;;;;;;15.32;57.94;101902.81;4978012;28;20297;-70
2023/10/02 02:17:18;;;;;;;15.75;7.00;;;;;;;15.33;58.08;101903.72;4967025;28;20073;-70
2023/10/02 02:19:48;;;;;;;17.38;8.25;;;;;;;15.36;57.68;101898.28;4981231;28;20048;-71
2023/10/02 02:22:25;;;;;;;13.32;6.25;;;;;;;15.37;57.65;101890.34;4980358;28;20042;-70
2023/10/02 02:24:53;;;;;;;14.32;6.35;;;;;;;15.34;57.71;101889.59;4961209;28;20069;-71
2023/10/02 02:27:19;;;;;;;15.90;7.00;;;;;;;15.33;57.85;101890.53;4979742;28;20448;-70
2023/10/02 02:29:46;;;;;;;15.55;7.28;;;;;;;15.36;57.88;101890.41;4973152;28;20034;-70
2023/10/02 02:32:12;;;;;;;12.20;7.05;;;;;;;15.37;57.54;101894.72;4986134;28;20038;-70
2023/10/02 02:34:38;;;;;;;14.52;7.40;;;;;;;15.27;57.65;101885.53;4968178;28;20049;-70
2023/10/02 02:37:06;;;;;;;18.33;7.15;;;;;;;15.31;57.49;101877.44;4980837;28;20033;-70
2023/10/02 02:39:37;;;;;;;16.85;7.35;;;;;;;15.25;57.41;101869.78;4976349;28;20117;-70
2023/10/02 02:42:09;;;;;;;16.23;7.40;;;;;;;15.23;57.45;101873.41;4963262;28;22739;-70
2023/10/02 02:44:55;;;;;;;14.50;6.82;;;;;;;15.16;57.76;101871.00;4959223;28;20046;-70
2023/10/02 02:47:23;;;;;;;17.17;7.38;;;;;;;15.14;58.01;101869.38;4958917;28;20043;-70
2023/10/02 02:49:52;;;;;;;15.50;7.50;;;;;;;15.08;58.13;101870.50;4959869;28;20425;-70
2023/10/02 02:52:20;;;;;;;17.02;7.80;;;;;;;15.10;57.67;101873.94;4969553;28;20050;-72
2023/10/02 02:54:59;;;;;;;21.42;8.38;;;;;;;15.05;57.92;101860.09;4969048;28;20051;-72
2023/10/02 02:57:30;;;;;;;16.20;7.65;;;;;;;15.07;57.83;101863.53;4993115;28;20042;-71
2023/10/02 03:02:46;;;;;;;17.75;7.80;;;;;;;15.03;57.87;101842.66;4980523;28;20038;-71
2023/10/02 03:05:13;;;;;;;20.65;6.90;;;;;;;14.99;57.67;101849.81;4982448;28;20042;-70
2023/10/02 03:07:40;;;;;;;18.48;8.40;;;;;;;15.00;57.52;101862.06;4986142;28;20084;-70
2023/10/02 03:10:13;;;;;;;17.98;7.93;;;;;;;14.88;58.01;101874.00;4978232;28;20042;-70
2023/10/02 03:12:44;;;;;;;22.50;8.88;;;;;;;14.88;58.17;101874.00;4986606;28;20512;-69
2023/10/02 03:15:18;;;;;;;20.77;8.95;;;;;;;14.95;58.06;101879.84;4980084;28;20053;-67
2023/10/02 03:17:48;;;;;;;17.58;7.38;;;;;;;14.99;57.83;101876.16;4983258;28;20041;-66
2023/10/02 03:20:23;;;;;;;20.52;8.43;;;;;;;14.98;57.88;101877.09;4965476;28;20625;-69
2023/10/02 03:22:53;;;;;;;17.27;9.07;;;;;;;14.97;57.78;101872.75;4958197;28;20962;-70
2023/10/02 03:25:40;;;;;;;13.95;6.82;;;;;;;15.02;57.92;101868.13;4961206;28;20038;-70
2023/10/02 03:28:16;;;;;;;24.60;9.93;;;;;;;15.06;57.76;101867.09;4959382;28;20053;-70
2023/10/02 03:30:47;;;;;;;19.65;8.93;;;;;;;15.01;57.64;101866.41;4969157;28;20519;-69
2023/10/02 03:33:22;;;;;;;20.02;8.43;;;;;;;15.00;57.55;101859.44;4983585;28;20121;-68
2023/10/02 03:36:24;;;;;;;22.02;9.10;;;;;;;15.02;57.63;101857.59;4976020;28;20112;-69
2023/10/02 03:38:43;;;;;;;21.10;8.95;;;;;;;15.00;57.52;101850.69;4980190;28;20073;-67
2023/10/02 03:41:11;;;;;;;20.90;8.55;;;;;;;14.99;57.34;101847.19;4979501;28;20033;-70
2023/10/02 03:43:49;;;;;;;21.52;10.10;;;;;;;14.95;57.41;101848.28;4978718;28;20041;-66
2023/10/02 03:46:22;;;;;;;19.17;8.45;;;;;;;14.92;57.53;101851.00;4988095;28;20049;-69
2023/10/02 03:48:58;;;;;;;17.52;7.80;;;;;;;14.94;57.43;101846.53;4982436;28;20056;-70
2023/10/02 03:51:36;;;;;;;19.58;10.15;;;;;;;14.92;57.40;101849.22;4982693;28;20029;-69
2023/10/02 03:54:17;;;;;;;22.05;10.38;;;;;;;14.87;57.33;101847.72;4969513;28;20746;-69
2023/10/02 03:56:50;;;;;;;20.08;9.82;;;;;;;14.84;57.57;101842.63;4963823;28;20042;-69
2023/10/02 03:59:17;;;;;;;20.83;9.52;;;;;;;14.75;57.80;101841.22;4963133;28;20575;-69
2023/10/02 04:01:43;;;;;;;23.58;9.77;;;;;;;14.76;57.63;101833.25;4961595;28;20445;-70
2023/10/02 04:06:42;;;;;;;21.73;9.65;;;;;;;14.72;57.88;101829.06;4963270;28;20047;-68
2023/10/02 04:09:12;;;;;;;27.00;10.30;;;;;;;14.63;57.81;101821.53;4958992;28;20054;-67
2023/10/02 04:11:38;;;;;;;24.25;9.75;;;;;;;14.52;58.16;101827.25;4961243;28;20031;-68
2023/10/02 04:14:16;;;;;;;20.05;9.48;;;;;;;14.62;57.69;101829.50;4954074;28;20162;-67
2023/10/02 04:16:59;;;;;;;20.88;9.23;;;;;;;14.53;57.63;101825.47;4967704;28;20057;-69
2023/10/02 04:19:25;;;;;;;22.85;9.88;;;;;;;14.34;58.66;101834.09;4963898;28;20042;-68
2023/10/02 04:21:57;;;;;;;20.23;7.90;;;;;;;14.39;58.27;101833.03;4960934;28;20108;-68
2023/10/02 04:24:23;;;;;;;18.08;9.00;;;;;;;14.35;58.37;101825.28;4961666;28;20165;-68
2023/10/02 04:26:54;;;;;;;19.40;9.43;;;;;;;14.34;58.56;101826.22;4958855;28;20101;-69
2023/10/02 04:29:28;;;;;;;23.48;9.23;;;;;;;14.30;58.54;101826.38;4960012;28;20038;-69
2023/10/02 04:32:18;;;;;;;21.55;9.43;;;;;;;13.99;59.49;101818.88;4958943;28;20026;-69
2023/10/02 04:34:50;;;;;;;23.85;9.68;;;;;;;14.24;59.02;101822.22;4961905;28;20062;-68
2023/10/02 04:37:22;;;;;;;;;;;;;;;14.22;59.06;101821.44;4961521;28;20115;-69
2023/10/02 04:42:25;;;;;;;16.88;8.48;;;;;;;14.23;59.13;101823.16;4961138;28;20041;-69
2023/10/02 04:44:58;;;;;;;21.33;9.85;;;;;;;13.97;59.46;101820.72;4943229;28;20046;-69
2023/10/02 04:47:27;;;;;;;22.02;9.90;;;;;;;14.19;58.81;101831.22;4961291;28;20034;-69
2023/10/02 04:55:25;;;;;;;27.30;8.43;;;;;;;14.13;59.01;101842.84;4959546;28;20104;-68
2023/10/02 04:57:54;;;;;;;20.55;9.65;;;;;;;14.16;58.58;101834.81;4957587;28;20030;-69
2023/10/02 05:01:17;;;;;;;18.30;10.00;;;;;;;14.23;58.74;101838.06;4961936;28;20137;-68
2023/10/02 05:03:17;;;;;;;18.13;9.00;;;;;;;14.25;58.44;101831.81;4955601;28;20047;-69
2023/10/02 05:05:48;;;;;;;18.30;9.18;;;;;;;14.19;58.49;101837.34;4962458;28;20050;-70
2023/10/02 05:08:40;;;;;;;27.45;9.50;;;;;;;14.18;58.76;101840.03;4961330;28;20026;-68
2023/10/02 05:11:08;;;;;;;25.27;9.95;;;;;;;14.18;58.68;101830.38;4954701;28;20042;-70
2023/10/02 05:16:46;;;;;;;25.02;9.93;;;;;;;14.10;58.82;101832.47;4964330;28;20097;-70
2023/10/02 05:19:15;;;;;;;22.20;9.73;;;;;;;13.85;59.66;101837.78;4955148;28;20042;-70
2023/10/02 05:21:50;;;;;;;19.15;9.30;;;;;;;14.06;58.97;101844.84;4960332;28;20500;-70
2023/10/02 05:24:17;;;;;;;20.92;9.45;;;;;;;14.03;58.77;101833.59;4953926;28;20038;-70
2023/10/02 05:26:44;;;;;;;24.42;10.98;;;;;;;13.98;58.56;101832.94;4976524;28;20104;-70
2023/10/02 05:29:17;;;;;;;22.42;10.80;;;;;;;13.93;59.23;101822.59;4953107;28;20099;-70
2023/10/02 05:31:49;;;;;;;25.38;10.05;;;;;;;13.96;58.89;101819.00;4946547;28;20034;-71
2023/10/02 05:34:23;;;;;;;22.10;10.27;;;;;;;13.92;58.94;101819.13;4957456;28;20441;-70
2023/10/02 05:37:39;;;;;;;23.88;9.70;;;;;;;13.91;58.93;101827.91;4962273;28;20038;-69
2023/10/02 05:39:42;;;;;;;22.77;8.82;;;;;;;13.86;59.18;101824.59;4972351;28;20057;-69
2023/10/02 05:42:13;;;;;;;25.02;9.93;;;;;;;13.83;59.01;101830.00;4973315;28;20046;-68
2023/10/02 05:44:42;;;;;;;24.23;9.90;;;;;;;13.90;59.22;101830.63;4978171;28;20042;-68
2023/10/02 05:47:11;;;;;;;22.55;9.63;;;;;;;13.91;59.06;101833.16;4974082;28;20035;-69
2023/10/02 05:49:43;;;;;;;24.23;10.18;;;;;;;13.91;59.08;101834.94;4979995;28;20060;-69
2023/10/02 05:52:09;;;;;;;19.92;9.80;;;;;;;13.93;58.88;101836.59;4974153;28;20162;-69
2023/10/02 05:54:42;;;;;;;24.67;10.23;;;;;;;13.92;58.89;101834.88;4981666;28;20145;-69
2023/10/02 05:57:12;;;;;;;21.30;9.40;;;;;;;13.93;59.04;101841.00;4973096;28;20039;-69
2023/10/02 05:59:55;;;;;;;24.13;9.52;;;;;;;14.01;59.32;101845.94;4985504;28;20073;-70
2023/10/02 06:02:22;;;;;;;22.67;9.70;;;;;;;14.07;58.71;101843.94;4973863;28;20037;-67
2023/10/02 06:04:52;;;;;;;23.50;10.00;;;;;;;14.18;58.81;101843.50;4979631;28;20068;-68
2023/10/02 06:10:18;;;;;;;20.58;8.52;;;;;;;14.38;58.59;101839.22;4974577;28;20046;-69
2023/10/02 06:12:49;;;;;;;24.35;9.55;;;;;;;14.39;58.65;101840.91;4979870;28;20034;-69
2023/10/02 06:15:43;;;;;;;26.77;11.48;;;;;;;14.27;58.89;101843.13;4969838;28;20054;-68
2023/10/02 06:18:01;;;;;;;28.65;11.05;;;;;;;14.65;58.48;101851.25;4975029;28;20030;-68
2023/10/02 06:20:27;;;;;;;27.27;10.68;;;;;;;14.72;57.61;101851.84;4974940;28;20452;-70
2023/10/02 06:23:05;;;;;;;20.83;10.20;;;;;;;14.50;58.25;101857.16;4979638;28;20053;-68
2023/10/02 06:25:31;;;;;;;28.85;10.05;;;;;;;14.68;58.01;101856.41;4973712;28;20046;-69
2023/10/02 06:28:19;;;;;;;25.65;8.73;;;;;;;14.83;57.64;101860.16;4977713;28;20096;-70
2023/10/02 06:30:47;;;;;;;22.25;9.93;;;;;;;14.96;57.02;101856.09;4966127;28;20133;-70
2023/10/02 06:33:13;;;;;;;22.55;9.40;;;;;;;15.14;56.70;101862.31;4956767;28;20038;-69
2023/10/02 06:35:44;;;;;;;25.17;10.82;;;;;;;15.37;56.45;101861.38;4949086;28;20548;-70
2023/10/02 06:38:17;;;;;;;19.95;9.32;;;;;;;15.77;56.06;101863.94;4958468;28;21473;-69
2023/10/02 06:40:55;;;;;;;20.15;9.90;;;;;;;15.96;54.31;101864.78;4959892;28;20437;-70
2023/10/02 06:43:32;;;;;;;29.33;10.95;;;;;;;16.28;52.91;101859.78;4960179;28;20115;-69
2023/10/02 06:46:21;;;;;;;21.88;9.52;;;;;;;16.04;53.42;101860.97;4947391;28;20043;-71
2023/10/02 06:48:51;;;;;;;19.98;8.32;;;;;;;16.07;53.08;101866.13;4953945;28;20725;-68
2023/10/02 06:51:17;;;;;;;22.90;9.40;;;;;;;15.91;54.28;101871.22;4964754;28;20026;-69
2023/10/02 06:53:43;;;;;;;21.65;9.95;;;;;;;15.54;54.63;101873.75;4973074;28;20045;-69
2023/10/02 06:56:13;;;;;;;24.00;9.20;;;;;;;15.70;54.45;101884.44;4976412;28;20436;-68
2023/10/02 06:58:56;;;;;;;19.77;9.40;;;;;;;15.65;54.52;101893.50;4981245;28;20042;-67
2023/10/02 07:01:32;;;;;;;20.45;9.30;;;;;;;15.42;55.20;101890.13;4978678;28;20702;-70
2023/10/02 07:04:08;;;;;;;22.17;10.27;;;;;;;15.46;55.48;101886.44;4976202;28;20078;-67
2023/10/02 07:06:38;;;;;;;18.75;9.27;;;;;;;15.58;55.51;101885.88;4968053;28;20042;-66
2023/10/02 07:09:10;;;;;;;27.27;9.48;;;;;;;15.41;55.44;101888.41;4963857;28;20046;-67
2023/10/02 07:11:42;;;;;;;21.88;9.20;;;;;;;15.57;55.46;101884.19;4981387;28;20638;-66
2023/10/02 07:14:09;;;;;;;23.58;10.38;;;;;;;15.50;55.92;101884.50;4974923;28;20097;-66
2023/10/02 07:16:36;;;;;;;18.55;8.80;;;;;;;15.35;56.36;101889.53;4989716;28;20544;-67
2023/10/02 07:19:04;;;;;;;23.77;9.35;;;;;;;15.53;55.55;101885.22;4977969;28;20068;-67
2023/10/02 07:21:30;;;;;;;23.20;9.63;;;;;;;16.18;55.00;101879.63;4981726;28;20092;-66
2023/10/02 07:23:57;;;;;;;18.25;9.65;;;;;;;17.05;52.94;101877.09;4979620;28;20045;-66
2023/10/02 07:29:07;;;;;;;20.67;9.77;;;;;;;17.13;50.82;101874.91;4976299;28;20034;-66
2023/10/02 07:31:32;;;;;;;20.42;10.13;;;;;;;17.15;50.88;101883.59;4982823;28;20111;-67
2023/10/02 07:33:58;;;;;;;23.45;9.93;;;;;;;17.66;51.01;101883.59;4983245;28;20052;-66
2023/10/02 07:36:26;;;;;;;17.80;9.85;;;;;;;17.63;50.10;101879.34;4973731;28;20037;-66
2023/10/02 07:38:53;;;;;;;26.20;10.23;;;;;;;17.75;49.33;101880.44;4974429;28;20118;-67
2023/10/02 07:41:25;;;;;;;23.38;9.15;;;;;;;18.10;47.99;101876.81;4985033;28;20065;-67
2023/10/02 07:43:55;;;;;;;21.50;8.88;;;;;;;17.93;48.52;101881.22;4978705;28;20400;-66
2023/10/02 07:46:23;;;;;;;26.48;9.50;;;;;;;17.83;49.36;101880.91;4975314;28;20029;-66
2023/10/02 07:48:57;;;;;;;19.10;10.52;;;;;;;17.01;51.50;101873.75;4981701;28;20069;-67
2023/10/02 07:51:35;;;;;;;29.05;10.65;;;;;;;16.96;50.91;101870.50;4960740;28;21263;-67
2023/10/02 07:54:09;;;;;;;18.90;8.98;;;;;;;17.75;50.63;101869.03;4958695;28;20051;-66
2023/10/02 07:56:35;;;;;;;26.77;10.90;;;;;;;17.79;49.42;101867.94;4952043;28;20485;-66
2023/10/02 07:59:03;;;;;;;20.90;9.98;;;;;;;18.02;49.21;101864.84;4962795;28;20046;-66
2023/10/02 08:01:29;;;;;;;24.08;10.20;;;;;;;17.88;48.92;101867.41;4962674;28;20041;-67
2023/10/02 08:03:55;;;;;;;21.73;9.98;;;;;;;18.29;49.05;101868.69;4950993;28;20077;-66
2023/10/02 08:06:33;;;;;;;16.95;9.63;;;;;;;18.68;47.38;101871.69;4955691;28;20034;-67
2023/10/02 08:11:52;;;;;;;23.08;10.30;;;;;;;18.19;48.19;101885.09;4964180;28;20030;-67
2023/10/02 08:17:18;;;;;;;22.40;11.00;;;;;;;16.60;52.37;101881.13;4977612;28;20101;-66
2023/10/02 08:19:54;;;;;;;25.88;9.98;;;;;;;18.21;50.63;101877.94;4966501;28;20070;-66
2023/10/02 08:22:23;;;;;;;23.27;10.75;;;;;;;18.68;47.95;101874.34;4957717;28;20043;-66
2023/10/02 08:24:50;;;;;;;25.38;10.70;;;;;;;18.69;47.25;101876.03;4942218;28;20700;-66
2023/10/02 08:27:15;;;;;;;22.15;9.45;;;;;;;19.20;46.82;101872.19;4955963;28;20030;-67
2023/10/02 08:29:44;;;;;;;21.38;10.63;;;;;;;18.00;49.21;101872.00;4959080;28;21096;-67
2023/10/02 08:32:10;;;;;;;21.80;10.05;;;;;;;19.09;46.69;101875.47;4973099;28;20038;-67
2023/10/02 08:34:36;;;;;;;19.90;9.25;;;;;;;19.27;46.21;101874.34;4977579;28;20061;-67
2023/10/02 08:37:05;;;;;;;19.77;9.07;;;;;;;19.83;45.44;101877.09;4978935;28;20038;-65
2023/10/02 08:39:32;;;;;;;20.80;9.35;;;;;;;20.26;44.99;101878.78;4978202;28;20096;-67
2023/10/02 08:42:08;;;;;;;19.92;9.63;;;;;;;20.87;43.56;101869.44;4979308;28;20113;-66
2023/10/02 08:44:43;;;;;;;19.23;9.23;;;;;;;21.07;43.15;101869.88;4982582;28;22153;-67
2023/10/02 08:47:11;;;;;;;26.13;10.48;;;;;;;20.20;45.09;101871.22;4978737;28;20034;-66
2023/10/02 08:49:41;;;;;;;25.00;10.38;;;;;;;20.48;43.78;101859.66;4980742;28;20042;-66
2023/10/02 08:52:13;;;;;;;22.27;10.07;;;;;;;19.97;44.54;101855.00;4977669;28;20364;-66
2023/10/02 08:54:40;;;;;;;19.88;9.85;;;;;;;19.70;45.16;101861.13;4975485;28;20046;-66
2023/10/02 08:57:08;;;;;;;27.98;11.02;;;;;;;19.88;45.18;101859.09;4970975;28;20030;-66
2023/10/02 08:59:40;;;;;;;31.52;10.82;;;;;;;19.74;45.65;101858.25;4969201;28;20081;-67
2023/10/02 09:02:14;;;;;;;22.35;9.23;;;;;;;20.51;45.29;101852.34;4973138;28;20065;-66
2023/10/02 09:04:59;;;;;;;21.55;10.73;;;;;;;20.85;43.55;101852.75;4972864;28;20047;-66
2023/10/02 09:07:45;;;;;;;20.92;9.52;;;;;;;21.27;42.28;101848.06;4977184;28;20046;-66
2023/10/02 09:13:11;;;;;;;23.85;10.20;;;;;;;21.39;43.19;101848.16;4980588;28;20061;-65
2023/10/02 09:15:37;;;;;;;19.42;9.20;;;;;;;21.83;41.12;101852.13;4978041;28;20451;-66
2023/10/02 09:18:22;;;;;;;22.10;10.52;;;;;;;22.03;40.52;101856.81;4980286;28;20030;-67
2023/10/02 09:20:53;;;;;;;22.27;9.68;;;;;;;21.33;42.32;101852.06;4979723;28;20042;-66
2023/10/02 09:23:22;;;;;;;20.70;9.63;;;;;;;21.70;42.35;101850.34;4976825;28;20037;-65
2023/10/02 09:26:16;;;;;;;23.70;11.10;;;;;;;21.52;41.96;101846.34;4978636;28;20401;-66
2023/10/02 09:28:47;;;;;;;20.13;9.70;;;;;;;22.12;41.25;101845.53;4979317;28;20307;-66
2023/10/02 09:31:15;;;;;;;25.52;10.45;;;;;;;21.90;41.86;101835.59;4975610;28;22772;-66
2023/10/02 09:33:45;;;;;;;24.40;8.93;;;;;;;21.36;42.34;101852.72;4966596;28;20034;-67
2023/10/02 09:36:12;;;;;;;24.40;9.85;;;;;;;21.41;42.40;101848.88;4975276;28;20026;-67
2023/10/02 09:38:42;;;;;;;26.80;10.27;;;;;;;22.16;40.88;101851.47;4976298;28;20030;-66
2023/10/02 09:41:14;;;;;;;23.27;9.18;;;;;;;22.47;40.66;101844.72;4980864;28;20643;-67
2023/10/02 09:43:41;;;;;;;24.92;10.52;;;;;;;22.37;39.52;101841.03;4977265;28;20045;-66
2023/10/02 09:46:21;;;;;;;21.77;10.23;;;;;;;22.06;40.77;101845.94;4979109;28;20654;-66
2023/10/02 09:49:07;;;;;;;21.52;11.73;;;;;;;21.68;41.55;101857.56;4979610;28;20053;-67
2023/10/02 09:52:07;;;;;;;23.98;10.75;;;;;;;20.77;43.91;101851.53;4973660;28;20120;-66
2023/10/02 09:54:40;;;;;;;19.00;10.63;;;;;;;19.87;45.78;101861.84;4965156;28;20198;-65
2023/10/02 09:57:19;;;;;;;21.08;9.75;;;;;;;20.13;46.32;101865.47;4958611;28;20061;-66
2023/10/02 09:59:48;;;;;;;25.42;10.85;;;;;;;20.11;45.77;101852.28;4957054;28;20069;-66
2023/10/02 10:10:47;;;;;;;22.60;11.23;;;;;;;20.39;46.10;101839.03;4951680;28;20119;-67
2023/10/02 10:13:34;;;;;;;24.65;10.77;;;;;;;20.66;44.70;101839.84;4955306;28;20564;-68
2023/10/02 10:16:23;;;;;;;19.83;9.98;;;;;;;20.40;45.07;101841.59;4978208;28;20241;-66
2023/10/02 10:19:41;;;;;;;24.80;9.93;;;;;;;20.61;44.85;101838.44;4981445;28;20408;-65
2023/10/02 10:21:56;;;;;;;;;;;;;;;21.31;44.21;101820.31;4975618;28;20077;-66
2023/10/02 10:24:31;;;;;;;;;;;;;;;21.47;43.33;101832.50;4969243;28;19925;-66
2023/10/02 10:26:57;;;;;;;19.80;10.25;;;;;;;21.47;42.55;101821.88;4960022;28;20308;-66
2023/10/02 10:30:09;;;;;;;20.67;9.73;;;;;;;20.82;44.34;101823.69;4957494;28;20046;-67
2023/10/02 10:32:35;;;;;;;23.38;9.68;;;;;;;20.40;45.63;101820.34;4956837;28;20101;-68
2023/10/02 10:35:12;;;;;;;18.75;10.55;;;;;;;20.26;45.85;101833.66;4958823;28;20054;-69
2023/10/02 10:37:48;;;;;;;22.20;9.57;;;;;;;21.24;44.17;101821.66;4959162;28;20053;-69
2023/10/02 10:40:55;;;;;;;23.13;9.82;;;;;;;20.74;45.04;101818.91;4968918;28;20050;-67
2023/10/02 10:44:07;;;;;;;25.20;10.38;;;;;;;21.10;44.54;101824.47;4977094;28;20049;-68
2023/10/02 10:46:12;;;;;;;20.58;9.75;;;;;;;22.24;42.25;101821.63;4983857;28;20070;-68
2023/10/02 10:48:53;;;;;;;22.98;10.02;;;;;;;22.23;41.36;101825.25;4965033;28;20082;-67
2023/10/02 10:51:22;;;;;;;22.17;9.85;;;;;;;22.44;41.88;101831.59;4974383;28;20069;-69
2023/10/02 10:53:52;;;;;;;19.17;8.65;;;;;;;22.79;41.23;101823.59;4983341;28;20418;-67
2023/10/02 10:56:19;;;;;;;22.45;9.88;;;;;;;22.68;41.15;101820.06;4973483;28;20030;-69
2023/10/02 10:58:45;;;;;;;19.30;9.52;;;;;;;23.06;40.28;101824.25;4977217;28;20145;-69
2023/10/02 11:01:20;;;;;;;22.50;9.05;;;;;;;23.41;39.31;101827.66;4979477;28;20671;-69
2023/10/02 11:03:54;;;;;;;18.38;7.95;;;;;;;24.00;39.47;101828.28;4979721;28;20038;-67
2023/10/02 11:06:23;;;;;;;19.48;9.25;;;;;;;24.10;38.23;101818.53;4980208;28;20061;-68
2023/10/02 11:09:11;;;;;;;21.67;9.55;;;;;;;22.81;40.04;101818.16;4981859;28;20096;-67
2023/10/02 11:11:50;;;;;;;21.63;9.70;;;;;;;23.29;40.21;101817.94;4976312;28;20058;-67
2023/10/02 11:14:23;;;;;;;22.13;9.52;;;;;;;23.85;38.54;101813.50;4970646;28;20046;-70
2023/10/02 11:16:54;;;;;;;18.20;9.00;;;;;;;24.20;38.28;101819.44;4960381;28;20038;-68
2023/10/02 11:22:20;;;;;;;23.92;9.00;;;;;;;25.10;36.81;101803.84;4960529;28;19921;-69
2023/10/02 11:24:54;;;;;;;21.65;9.70;;;;;;;24.45;38.06;101798.69;4973633;28;20053;-69
2023/10/02 11:27:24;;;;;;;19.30;9.57;;;;;;;23.72;38.29;101817.19;4978226;28;20536;-69
2023/10/02 11:30:03;;;;;;;19.40;9.13;;;;;;;22.92;40.08;101807.50;4983889;28;20058;-69
2023/10/02 11:32:54;;;;;;;20.63;9.40;;;;;;;22.65;41.30;101807.81;4980592;28;20038;-70
2023/10/02 11:35:28;;;;;;;17.25;9.20;;;;;;;22.94;40.50;101810.91;4975344;28;20149;-69
2023/10/02 11:37:55;;;;;;;24.48;9.45;;;;;;;22.76;41.17;101807.88;4992418;28;20050;-69
2023/10/02 11:40:25;;;;;;;17.88;8.68;;;;;;;23.37;41.14;101814.69;4977404;28;20707;-69
2023/10/02 11:42:51;;;;;;;22.35;10.18;;;;;;;22.83;40.51;101815.38;4986201;28;20060;-69
2023/10/02 11:45:17;;;;;;;23.60;9.25;;;;;;;22.10;42.76;101820.81;4976975;28;20088;-69
2023/10/02 11:47:43;;;;;;;20.55;9.02;;;;;;;22.70;42.34;101823.47;4980167;28;20472;-70
2023/10/02 11:50:09;;;;;;;19.02;9.70;;;;;;;22.47;41.84;101822.53;4977513;28;20050;-69
2023/10/02 11:52:34;;;;;;;18.85;9.57;;;;;;;22.75;41.10;101816.81;4973006;28;20026;-69
2023/10/02 11:55:00;;;;;;;22.67;10.35;;;;;;;22.96;41.02;101824.97;4966739;28;20065;-69
2023/10/02 11:57:26;;;;;;;18.75;8.75;;;;;;;22.59;42.32;101822.44;4956926;28;20042;-69
2023/10/02 11:59:51;;;;;;;21.38;9.93;;;;;;;22.75;40.87;101831.97;4956469;28;20126;-69
2023/10/02 12:02:17;;;;;;;23.90;9.75;;;;;;;22.40;42.08;101827.47;4961393;28;20051;-69
2023/10/02 12:04:44;;;;;;;21.98;10.10;;;;;;;22.15;42.68;101824.00;4963107;28;20057;-68
2023/10/02 12:07:15;;;;;;;21.65;9.55;;;;;;;22.48;41.71;101830.41;4955007;28;20045;-69
2023/10/02 12:09:41;;;;;;;21.70;9.93;;;;;;;21.42;44.44;101823.97;4953845;28;20058;-69
2023/10/02 12:12:07;;;;;;;24.58;9.65;;;;;;;21.56;44.89;101821.22;4961049;28;20113;-69
2023/10/02 12:14:32;;;;;;;23.45;9.30;;;;;;;21.49;44.81;101818.16;4953823;28;20046;-69
2023/10/02 12:17:00;;;;;;;24.17;9.95;;;;;;;21.70;43.86;101822.88;4960646;28;20065;-69
2023/10/02 12:19:28;;;;;;;20.10;10.70;;;;;;;21.17;44.80;101828.38;4963800;28;20042;-69
2023/10/02 12:21:55;;;;;;;29.63;10.63;;;;;;;20.96;45.34;101827.25;4960522;28;20035;-69
2023/10/02 12:24:21;;;;;;;24.73;9.98;;;;;;;21.83;43.19;101814.88;4967577;28;20051;-69
2023/10/02 12:26:47;;;;;;;22.67;10.02;;;;;;;21.80;43.90;101812.41;4976694;28;20038;-70
2023/10/02 12:29:12;;;;;;;20.42;9.27;;;;;;;21.95;43.27;101816.59;4980434;28;20057;-69